createdAt,value
2019-04-03T00:01:36.000Z,99.90
2019-04-03T00:04:04.910Z,99.90
2019-04-03T00:06:35.386Z,99.90
2019-04-03T00:09:07.096Z,99.90
2019-04-03T00:11:39.252Z,99.90
2019-04-03T00:14:06.980Z,99.90
2019-04-03T00:16:35.497Z,99.90
2019-04-03T00:19:03.977Z,99.90
2019-04-03T00:21:32.361Z,99.90
2019-04-03T00:24:00.760Z,99.90
2019-04-03T00:26:30.665Z,99.90
2019-04-03T00:28:59.244Z,99.90
2019-04-03T00:31:27.703Z,99.90
2019-04-03T00:33:56.082Z,99.90
2019-04-03T00:36:24.468Z,99.90
2019-04-03T00:38:54.311Z,99.90
2019-04-03T00:41:24.766Z,99.90
2019-04-03T00:43:54.487Z,99.90
2019-04-03T00:46:24.377Z,99.90
2019-04-03T00:48:55.187Z,99.90
2019-04-03T00:51:23.388Z,99.90
2019-04-03T00:53:51.769Z,99.90
2019-04-03T00:56:20.160Z,99.90
2019-04-03T00:58:48.540Z,99.90
2019-04-03T01:01:16.941Z,99.90
2019-04-03T01:03:45.319Z,99.90
2019-04-03T01:06:13.778Z,99.90
2019-04-03T01:08:42.156Z,99.90
2019-04-03T01:11:10.541Z,99.90
2019-04-03T01:13:39.164Z,99.90
2019-04-03T01:16:07.556Z,99.90
2019-04-03T01:18:35.946Z,99.90
2019-04-03T01:21:06.216Z,99.90
2019-04-03T01:23:37.040Z,99.90
2019-04-03T01:26:04.803Z,99.90
2019-04-03T01:28:33.272Z,99.90
2019-04-03T01:31:01.632Z,99.90
2019-04-03T01:33:30.012Z,99.90
2019-04-03T01:35:58.405Z,99.90
2019-04-03T01:38:26.784Z,99.90
2019-04-03T01:40:55.233Z,99.90
2019-04-03T01:43:23.775Z,99.90
2019-04-03T01:45:52.684Z,99.90
2019-04-03T01:48:21.068Z,99.90
2019-04-03T01:50:49.463Z,99.90
2019-04-03T01:53:17.854Z,99.90
2019-04-03T01:55:46.229Z,99.90
2019-04-03T01:58:14.608Z,99.90
2019-04-03T02:00:42.996Z,99.90
2019-04-03T02:03:11.648Z,99.90
2019-04-03T02:05:40.022Z,99.90
2019-04-03T02:08:08.423Z,99.90
2019-04-03T02:10:36.812Z,99.90
2019-04-03T02:13:05.264Z,99.90
2019-04-03T02:15:33.665Z,99.90
2019-04-03T02:18:02.040Z,99.90
2019-04-03T02:20:30.453Z,99.90
2019-04-03T02:23:00.406Z,99.90
2019-04-03T02:25:31.535Z,99.90
2019-04-03T02:27:59.133Z,99.90
2019-04-03T02:30:27.548Z,99.90
2019-04-03T02:32:57.341Z,99.90
2019-04-03T02:35:26.025Z,99.90
2019-04-03T02:37:54.697Z,99.90
2019-04-03T02:40:23.575Z,99.90
2019-04-03T02:42:51.961Z,99.90
2019-04-03T02:45:22.817Z,99.90
2019-04-03T02:47:50.452Z,99.90
2019-04-03T02:50:24.621Z,99.90
2019-04-03T02:52:58.307Z,99.90
2019-04-03T02:55:25.351Z,99.90
2019-04-03T02:57:54.502Z,99.90
2019-04-03T03:00:22.949Z,99.90
2019-04-03T03:02:51.359Z,99.90
2019-04-03T03:05:20.209Z,99.90
2019-04-03T03:07:49.207Z,99.90
2019-04-03T03:10:19.469Z,99.90
2019-04-03T03:12:48.084Z,99.90
2019-04-03T03:15:16.614Z,99.90
2019-04-03T03:17:46.629Z,99.90
2019-04-03T03:20:18.102Z,99.90
2019-04-03T03:22:49.997Z,99.90
2019-04-03T03:25:17.481Z,99.90
2019-04-03T03:27:47.541Z,99.90
2019-04-03T03:30:41.171Z,99.90
2019-04-03T03:32:47.041Z,99.90
2019-04-03T03:35:22.952Z,99.90
2019-04-03T03:37:46.582Z,99.90
2019-04-03T03:40:16.563Z,99.90
2019-04-03T03:42:45.156Z,99.90
2019-04-03T03:45:19.139Z,99.90
2019-04-03T03:47:48.892Z,99.90
2019-04-03T03:50:23.871Z,99.90
2019-04-03T03:52:51.154Z,99.90
2019-04-03T03:55:22.918Z,99.90
2019-04-03T03:57:50.106Z,99.90
2019-04-03T04:00:22.616Z,99.90
2019-04-03T04:02:50.154Z,99.90
2019-04-03T04:05:21.434Z,99.90
2019-04-03T04:07:48.978Z,99.90
2019-04-03T04:10:17.652Z,99.90
2019-04-03T04:12:47.635Z,99.90
2019-04-03T04:15:16.072Z,99.90
2019-04-03T04:17:48.530Z,99.90
2019-04-03T04:20:14.660Z,99.90
2019-04-03T04:22:44.382Z,99.90
2019-04-03T04:25:12.760Z,99.90
2019-04-03T04:27:41.161Z,99.90
2019-04-03T04:30:11.990Z,99.90
2019-04-03T04:32:40.532Z,99.90
2019-04-03T04:35:10.921Z,99.90
2019-04-03T04:37:40.573Z,99.90
2019-04-03T04:40:10.076Z,99.90
2019-04-03T04:42:38.472Z,99.90
2019-04-03T04:45:07.949Z,99.90
2019-04-03T04:47:36.937Z,99.90
2019-04-03T04:50:06.936Z,99.90
2019-04-03T04:52:35.443Z,99.90
2019-04-03T04:55:04.453Z,99.90
2019-04-03T04:57:32.841Z,99.90
2019-04-03T05:00:01.246Z,99.90
2019-04-03T05:02:29.645Z,99.90
2019-04-03T05:04:58.041Z,99.90
2019-04-03T05:07:26.436Z,99.90
2019-04-03T05:09:54.842Z,99.90
2019-04-03T05:12:23.233Z,99.90
2019-04-03T05:14:51.703Z,99.90
2019-04-03T05:17:20.168Z,99.90
2019-04-03T05:19:49.337Z,99.90
2019-04-03T05:22:18.627Z,99.90
2019-04-03T05:24:46.988Z,99.90
2019-04-03T05:27:15.388Z,99.90
2019-04-03T05:29:44.031Z,99.90
2019-04-03T05:32:13.065Z,99.90
2019-04-03T05:34:43.529Z,99.90
2019-04-03T05:37:12.059Z,99.90
2019-04-03T05:39:40.445Z,99.90
2019-04-03T05:42:09.037Z,99.90
2019-04-03T05:44:39.012Z,99.90
2019-04-03T05:47:08.397Z,99.90
2019-04-03T05:49:37.440Z,99.90
2019-04-03T05:52:05.827Z,99.90
2019-04-03T05:54:34.206Z,99.90
2019-04-03T05:57:02.611Z,99.90
2019-04-03T05:59:33.078Z,99.90
2019-04-03T06:02:13.316Z,99.90
2019-04-03T06:04:31.487Z,99.90
2019-04-03T06:07:00.460Z,99.90
2019-04-03T06:09:28.874Z,99.90
2019-04-03T06:11:57.261Z,99.90
2019-04-03T06:14:25.829Z,99.90
2019-04-03T06:16:56.169Z,99.90
2019-04-03T06:19:24.930Z,99.90
2019-04-03T06:21:53.445Z,99.90
2019-04-03T06:24:23.820Z,99.90
2019-04-03T06:26:51.993Z,99.90
2019-04-03T06:29:20.391Z,99.90
2019-04-03T06:31:48.764Z,99.90
2019-04-03T06:34:17.152Z,99.90
2019-04-03T06:36:45.541Z,99.90
2019-04-03T06:39:14.466Z,99.90
2019-04-03T06:41:43.524Z,99.90
2019-04-03T06:44:11.937Z,99.90
2019-04-03T06:46:40.361Z,99.90
2019-04-03T06:49:09.001Z,99.90
2019-04-03T06:51:38.029Z,99.90
2019-04-03T06:54:08.078Z,99.90
2019-04-03T06:56:36.528Z,99.90
2019-04-03T06:59:04.991Z,99.90
2019-04-03T07:01:33.487Z,99.90
2019-04-03T07:04:01.869Z,99.90
2019-04-03T07:06:30.277Z,99.90
2019-04-03T07:08:58.729Z,99.90
2019-04-03T07:11:27.119Z,99.90
2019-04-03T07:13:55.819Z,99.90
2019-04-03T07:16:25.107Z,99.90
2019-04-03T07:18:54.062Z,99.90
2019-04-03T07:21:23.179Z,99.90
2019-04-03T07:23:52.664Z,99.90
2019-04-03T07:26:21.113Z,99.90
2019-04-03T07:28:49.509Z,99.90
2019-04-03T07:31:17.903Z,99.90
2019-04-03T07:33:46.301Z,99.90
2019-04-03T07:36:14.677Z,99.90
2019-04-03T07:38:43.347Z,99.90
2019-04-03T07:41:12.326Z,99.90
2019-04-03T07:43:40.784Z,99.90
2019-04-03T07:46:09.249Z,99.90
2019-04-03T07:48:38.519Z,99.90
2019-04-03T07:51:07.509Z,99.90
2019-04-03T07:53:36.058Z,99.90
2019-04-03T07:56:04.734Z,99.90
2019-04-03T07:58:33.138Z,99.90
2019-04-03T08:01:01.527Z,99.90
2019-04-03T08:03:30.251Z,99.90
2019-04-03T08:05:59.278Z,99.90
2019-04-03T08:08:27.732Z,99.90
2019-04-03T08:10:56.483Z,99.90
2019-04-03T08:13:25.534Z,99.90
2019-04-03T08:15:53.960Z,99.90
2019-04-03T08:18:22.376Z,99.90
2019-04-03T08:20:51.058Z,99.90
2019-04-03T08:23:20.049Z,99.90
2019-04-03T08:25:49.164Z,99.90
2019-04-03T08:28:18.208Z,99.90
2019-04-03T08:30:46.811Z,99.90
2019-04-03T08:33:18.317Z,99.90
2019-04-03T08:35:45.949Z,99.90
2019-04-03T08:38:14.393Z,99.90
2019-04-03T08:40:42.801Z,99.90
2019-04-03T08:43:11.267Z,99.90
2019-04-03T08:45:39.715Z,99.90
2019-04-03T08:48:08.196Z,99.90
2019-04-03T08:50:36.646Z,99.90
2019-04-03T08:53:07.412Z,99.90
2019-04-03T08:55:35.224Z,99.90
2019-04-03T08:58:03.610Z,99.90
2019-04-03T09:00:32.749Z,99.90
2019-04-03T09:03:03.671Z,99.90
2019-04-03T09:05:32.209Z,99.90
2019-04-03T09:08:00.852Z,99.90
2019-04-03T09:10:31.477Z,99.90
2019-04-03T09:12:59.892Z,99.90
2019-04-03T09:15:28.715Z,99.90
2019-04-03T09:17:57.717Z,99.90
2019-04-03T09:20:26.173Z,99.90
2019-04-03T09:22:54.615Z,99.90
2019-04-03T09:25:23.110Z,99.90
2019-04-03T09:27:51.568Z,99.90
2019-04-03T09:30:20.202Z,99.90
2019-04-03T09:32:48.623Z,99.90
2019-04-03T09:35:17.152Z,99.90
2019-04-03T09:37:46.706Z,99.90
2019-04-03T09:40:17.218Z,99.90
2019-04-03T09:42:45.965Z,99.90
2019-04-03T09:45:15.071Z,99.90
2019-04-03T09:47:44.148Z,99.90
2019-04-03T09:50:14.402Z,99.90
2019-04-03T09:52:48.732Z,99.90
2019-04-03T09:55:14.905Z,99.90
2019-04-03T09:57:43.420Z,99.90
2019-04-03T10:00:13.809Z,99.90
2019-04-03T10:02:42.192Z,99.90
2019-04-03T10:05:11.655Z,99.90
2019-04-03T10:07:40.637Z,99.90
2019-04-03T10:10:09.885Z,99.90
2019-04-03T10:12:38.305Z,99.90
2019-04-03T10:15:08.738Z,99.90
2019-04-03T10:17:38.592Z,99.90
2019-04-03T10:20:10.061Z,99.90
2019-04-03T10:22:38.623Z,99.90
2019-04-03T10:25:11.600Z,99.90
2019-04-03T10:27:42.627Z,99.90
2019-04-03T10:30:12.825Z,99.90
2019-04-03T10:32:41.977Z,99.90
2019-04-03T10:35:10.764Z,99.90
2019-04-03T10:37:39.156Z,99.90
2019-04-03T10:40:09.680Z,99.90
2019-04-03T10:42:38.115Z,99.90
2019-04-03T10:45:09.577Z,99.90
2019-04-03T10:47:42.096Z,99.90
2019-04-03T10:50:09.549Z,99.90
2019-04-03T10:52:38.145Z,99.90
2019-04-03T10:55:09.163Z,99.90
2019-04-03T10:57:38.243Z,99.90
2019-04-03T11:00:10.128Z,99.90
2019-04-03T11:02:38.709Z,99.90
2019-04-03T11:05:10.817Z,99.90
2019-04-03T11:07:39.303Z,99.90
2019-04-03T11:10:10.026Z,99.60
2019-04-03T11:12:38.420Z,99.60
2019-04-03T11:15:11.579Z,99.70
2019-04-03T11:17:40.541Z,99.90
2019-04-03T11:20:11.838Z,99.60
2019-04-03T11:22:42.086Z,99.90
2019-04-03T11:25:14.143Z,99.90
2019-04-03T11:27:44.144Z,99.90
2019-04-03T11:30:18.750Z,99.90
2019-04-03T11:32:45.866Z,99.90
2019-04-03T11:35:15.397Z,99.90
2019-04-03T11:37:43.817Z,99.50
2019-04-03T11:40:13.945Z,99.30
2019-04-03T11:42:42.400Z,99.40
2019-04-03T11:45:12.718Z,99.90
2019-04-03T11:47:41.409Z,98.00
2019-04-03T11:50:12.365Z,99.20
2019-04-03T11:52:41.042Z,98.50
2019-04-03T11:55:11.705Z,97.40
2019-04-03T11:57:40.180Z,99.10
2019-04-03T12:00:13.488Z,99.40
2019-04-03T12:02:43.977Z,99.40
2019-04-03T12:05:16.237Z,99.90
2019-04-03T12:07:43.593Z,98.70
2019-04-03T12:10:13.016Z,99.80
2019-04-03T12:12:42.045Z,98.10
2019-04-03T12:15:15.690Z,98.70
2019-04-03T12:17:43.176Z,98.30
2019-04-03T12:20:15.838Z,97.50
2019-04-03T12:22:44.939Z,97.60
2019-04-03T12:25:15.231Z,98.10
2019-04-03T12:27:46.064Z,97.50
2019-04-03T12:30:15.119Z,97.80
2019-04-03T12:32:48.718Z,97.10
2019-04-03T12:35:14.332Z,96.00
2019-04-03T12:37:43.634Z,97.10
2019-04-03T12:40:12.785Z,97.00
2019-04-03T12:42:41.306Z,97.00
2019-04-03T12:45:10.768Z,96.80
2019-04-03T12:47:39.389Z,96.60
2019-04-03T12:50:12.105Z,97.40
2019-04-03T12:52:39.821Z,95.80
2019-04-03T12:55:10.158Z,95.10
2019-04-03T12:57:39.798Z,93.80
2019-04-03T13:00:12.734Z,92.90
2019-04-03T13:02:41.655Z,94.40
2019-04-03T13:05:10.289Z,93.20
2019-04-03T13:07:38.686Z,94.50
2019-04-03T13:10:10.375Z,94.70
2019-04-03T13:12:39.197Z,93.80
2019-04-03T13:15:10.475Z,95.40
2019-04-03T13:17:39.181Z,95.30
2019-04-03T13:20:10.242Z,95.30
2019-04-03T13:22:40.025Z,95.60
2019-04-03T13:25:09.670Z,96.00
2019-04-03T13:27:39.788Z,95.70
2019-04-03T13:30:13.096Z,95.40
2019-04-03T13:32:41.829Z,95.90
2019-04-03T13:35:10.490Z,97.60
2019-04-03T13:37:38.892Z,98.50
2019-04-03T13:40:09.318Z,99.50
2019-04-03T13:42:37.793Z,98.40
2019-04-03T13:45:11.382Z,99.70
2019-04-03T13:47:41.904Z,99.30
2019-04-03T13:50:11.889Z,99.90
2019-04-03T13:52:43.530Z,99.90
2019-04-03T13:55:11.588Z,99.90
2019-04-03T13:57:39.973Z,99.90
2019-04-03T14:00:20.646Z,99.90
2019-04-03T14:02:40.173Z,99.90
2019-04-03T14:05:09.781Z,99.90
2019-04-03T14:07:41.530Z,99.90
2019-04-03T14:10:10.158Z,99.90
2019-04-03T14:12:41.752Z,99.90
2019-04-03T14:15:10.167Z,99.90
2019-04-03T14:17:39.760Z,99.90
2019-04-03T14:20:30.963Z,99.90
2019-04-03T14:23:02.723Z,99.90
2019-04-03T14:25:35.099Z,99.90
2019-04-03T14:28:03.189Z,99.90
2019-04-03T14:30:30.325Z,99.90
2019-04-03T14:32:58.745Z,99.90
2019-04-03T14:35:47.372Z,99.90
2019-04-03T14:37:59.503Z,99.90
2019-04-03T14:40:27.376Z,99.90
2019-04-03T14:42:57.871Z,99.90
2019-04-03T14:45:25.888Z,99.90
2019-04-03T14:47:55.638Z,99.90
2019-04-03T14:50:24.731Z,99.90
2019-04-03T14:52:53.723Z,99.90
2019-04-03T14:55:23.388Z,99.90
2019-04-03T14:57:55.038Z,99.90
2019-04-03T15:00:27.314Z,99.90
2019-04-03T15:02:54.701Z,99.90
2019-04-03T15:05:22.927Z,99.90
2019-04-03T15:07:51.948Z,99.90
2019-04-03T15:10:21.285Z,99.90
2019-04-03T15:12:49.930Z,99.90
2019-04-03T15:15:18.505Z,99.90
2019-04-03T15:17:46.892Z,99.90
2019-04-03T15:20:17.974Z,99.90
2019-04-03T15:22:47.384Z,99.90
2019-04-03T15:25:16.774Z,99.90
2019-04-03T15:27:46.048Z,99.90
2019-04-03T15:30:15.742Z,99.90
2019-04-03T15:32:44.729Z,99.90
2019-04-03T15:35:13.548Z,99.90
2019-04-03T15:37:43.031Z,99.90
2019-04-03T15:40:14.132Z,99.90
2019-04-03T15:42:42.601Z,99.90
2019-04-03T15:45:12.439Z,99.90
2019-04-03T15:47:45.073Z,99.90
2019-04-03T15:50:14.068Z,99.90
2019-04-03T15:52:44.303Z,99.90
2019-04-03T15:55:12.906Z,99.90
2019-04-03T15:57:42.306Z,99.90
2019-04-03T16:00:16.915Z,99.90
2019-04-03T16:02:47.174Z,99.90
2019-04-03T16:05:17.860Z,99.90
2019-04-03T16:07:46.329Z,99.90
2019-04-03T16:10:14.776Z,99.90
2019-04-03T16:12:44.040Z,99.90
2019-04-03T16:15:13.244Z,99.90
2019-04-03T16:17:43.081Z,99.90
2019-04-03T16:20:15.833Z,99.90
2019-04-03T16:22:43.793Z,99.90
2019-04-03T16:25:16.226Z,99.90
2019-04-03T16:27:43.106Z,99.90
2019-04-03T16:30:15.563Z,99.90
2019-04-03T16:32:43.566Z,99.90
2019-04-03T16:35:14.573Z,99.90
2019-04-03T16:37:43.805Z,99.90
2019-04-03T16:40:14.893Z,99.90
2019-04-03T16:42:43.353Z,99.90
2019-04-03T16:45:12.602Z,99.90
2019-04-03T16:47:44.057Z,99.90
2019-04-03T16:50:12.313Z,99.90
2019-04-03T16:52:41.132Z,99.90
2019-04-03T16:55:10.210Z,99.90
2019-04-03T16:57:39.379Z,99.90
2019-04-03T17:00:10.495Z,99.90
2019-04-03T17:02:38.969Z,99.90
2019-04-03T17:05:11.716Z,99.90
2019-04-03T17:07:40.486Z,99.90
2019-04-03T17:10:10.759Z,99.90
2019-04-03T17:12:39.783Z,99.90
2019-04-03T17:15:10.759Z,99.90
2019-04-03T17:17:39.282Z,99.90
2019-04-03T17:20:09.477Z,99.90
2019-04-03T17:22:40.702Z,99.90
2019-04-03T17:25:09.912Z,99.90
2019-04-03T17:27:38.375Z,99.90
2019-04-03T17:30:09.120Z,99.90
2019-04-03T17:32:38.716Z,99.90
2019-04-03T17:35:09.946Z,99.90
2019-04-03T17:37:38.483Z,99.90
2019-04-03T17:40:09.557Z,99.90
2019-04-03T17:42:39.265Z,99.90
2019-04-03T17:45:08.904Z,99.90
2019-04-03T17:47:37.290Z,99.90
2019-04-03T17:50:08.329Z,99.90
2019-04-03T17:52:37.098Z,99.90
2019-04-03T17:55:11.250Z,99.90
2019-04-03T17:57:39.635Z,99.90
2019-04-03T18:00:17.002Z,99.90
2019-04-03T18:02:45.393Z,99.90
2019-04-03T18:05:14.655Z,99.90
2019-04-03T18:07:43.097Z,99.90
2019-04-03T18:10:13.076Z,99.90
2019-04-03T18:12:42.092Z,99.90
2019-04-03T18:15:11.321Z,99.90
2019-04-03T18:17:39.723Z,99.90
2019-04-03T18:20:08.449Z,99.90
2019-04-03T18:22:37.007Z,99.90
2019-04-03T18:25:09.838Z,99.90
2019-04-03T18:27:38.216Z,99.90
2019-04-03T18:30:11.965Z,99.90
2019-04-03T18:32:39.868Z,99.90
2019-04-03T18:35:09.620Z,99.90
2019-04-03T18:37:40.629Z,99.90
2019-04-03T18:40:14.175Z,99.90
2019-04-03T18:42:41.248Z,99.90
2019-04-03T18:45:24.029Z,99.90
2019-04-03T18:47:45.842Z,99.90
2019-04-03T18:50:12.359Z,99.90
2019-04-03T18:52:40.774Z,99.90
2019-04-03T18:55:09.431Z,99.90
2019-04-03T18:57:37.821Z,99.90
2019-04-03T19:00:09.401Z,99.90
2019-04-03T19:02:38.655Z,99.90
2019-04-03T19:05:10.893Z,99.90
2019-04-03T19:07:39.204Z,99.90
2019-04-03T19:10:08.737Z,99.90
2019-04-03T19:12:37.096Z,99.90
2019-04-03T19:15:07.277Z,99.90
2019-04-03T19:17:35.689Z,99.90
2019-04-03T19:20:10.772Z,99.90
2019-04-03T19:22:37.426Z,99.90
2019-04-03T19:25:07.494Z,99.90
2019-04-03T19:27:35.873Z,99.90
2019-04-03T19:30:07.877Z,99.90
2019-04-03T19:32:36.974Z,99.90
2019-04-03T19:35:10.102Z,99.90
2019-04-03T19:37:39.070Z,99.90
2019-04-03T19:40:09.912Z,99.90
2019-04-03T19:42:38.340Z,99.90
2019-04-03T19:45:08.875Z,99.90
2019-04-03T19:47:37.262Z,99.90
2019-04-03T19:50:08.445Z,99.90
2019-04-03T19:52:37.418Z,99.90
2019-04-03T19:55:09.011Z,99.90
2019-04-03T19:57:37.393Z,99.90
2019-04-03T20:00:10.776Z,99.90
2019-04-03T20:02:42.765Z,99.90
2019-04-03T20:05:09.422Z,99.90
2019-04-03T20:07:37.810Z,99.90
2019-04-03T20:10:08.897Z,99.90
2019-04-03T20:12:37.756Z,99.90
2019-04-03T20:15:09.344Z,99.90
2019-04-03T20:17:37.737Z,99.90
2019-04-03T20:20:08.052Z,99.90
2019-04-03T20:22:37.850Z,99.90
2019-04-03T20:25:08.196Z,99.90
2019-04-03T20:27:36.617Z,99.90
2019-04-03T20:30:07.833Z,99.90
2019-04-03T20:32:36.252Z,99.90
2019-04-03T20:35:07.502Z,99.90
2019-04-03T20:37:35.883Z,99.90
2019-04-03T20:40:06.105Z,99.90
2019-04-03T20:42:34.523Z,99.90
2019-04-03T20:45:03.887Z,99.90
2019-04-03T20:47:32.269Z,99.90
2019-04-03T20:50:00.649Z,99.90
2019-04-03T20:52:29.041Z,99.90
2019-04-03T20:54:57.423Z,99.90
2019-04-03T20:57:25.814Z,99.90
2019-04-03T21:00:02.203Z,99.90
2019-04-03T21:02:24.455Z,99.90
2019-04-03T21:04:53.583Z,99.90
2019-04-03T21:07:23.915Z,99.90
2019-04-03T21:09:52.096Z,99.90
2019-04-03T21:12:20.480Z,99.90
2019-04-03T21:14:48.890Z,99.90
2019-04-03T21:17:19.003Z,99.90
2019-04-03T21:19:47.391Z,99.90
2019-04-03T21:22:15.777Z,99.90
2019-04-03T21:24:44.156Z,99.90
2019-04-03T21:27:12.628Z,99.90
2019-04-03T21:29:41.013Z,99.90
2019-04-03T21:32:10.611Z,99.90
2019-04-03T21:34:42.524Z,99.90
2019-04-03T21:37:10.106Z,99.90
2019-04-03T21:39:39.148Z,99.90
2019-04-03T21:42:07.524Z,99.90
2019-04-03T21:44:36.157Z,99.90
2019-04-03T21:47:04.552Z,99.90
2019-04-03T21:49:32.938Z,99.90
2019-04-03T21:52:01.329Z,99.90
2019-04-03T21:54:29.721Z,99.90
2019-04-03T21:56:58.116Z,99.90
2019-04-03T21:59:26.507Z,99.90
2019-04-03T22:01:54.880Z,99.90
2019-04-03T22:04:23.437Z,99.90
2019-04-03T22:06:52.521Z,99.90
2019-04-03T22:09:20.908Z,99.90
2019-04-03T22:11:49.300Z,99.90
2019-04-03T22:14:17.736Z,99.90
2019-04-03T22:16:46.143Z,99.90
2019-04-03T22:19:14.520Z,99.90
2019-04-03T22:21:42.900Z,99.90
2019-04-03T22:24:11.297Z,99.90
2019-04-03T22:26:40.776Z,99.90
2019-04-03T22:29:09.800Z,99.90
2019-04-03T22:31:38.197Z,99.90
2019-04-03T22:34:06.577Z,99.90
2019-04-03T22:36:34.966Z,99.90
2019-04-03T22:39:08.033Z,99.90
2019-04-03T22:41:36.312Z,99.90
2019-04-03T22:44:04.716Z,99.90
2019-04-03T22:46:33.100Z,99.90
2019-04-03T22:49:01.492Z,99.90
2019-04-03T22:51:29.900Z,99.90
2019-04-03T22:53:58.284Z,99.90
2019-04-03T22:56:26.669Z,99.90
2019-04-03T22:58:55.095Z,99.90
2019-04-03T23:01:23.494Z,99.90
2019-04-03T23:03:51.869Z,99.90
2019-04-03T23:06:20.336Z,99.90
2019-04-03T23:08:48.896Z,99.90
2019-04-03T23:11:17.371Z,99.90
2019-04-03T23:13:46.029Z,99.90
2019-04-03T23:16:14.436Z,99.90
2019-04-03T23:18:42.804Z,99.90
2019-04-03T23:21:11.195Z,99.90
2019-04-03T23:23:39.580Z,99.90
2019-04-03T23:26:07.960Z,99.90
2019-04-03T23:28:36.371Z,99.90
2019-04-03T23:31:04.767Z,99.90
2019-04-03T23:33:33.172Z,99.90
2019-04-03T23:36:01.552Z,99.90
2019-04-03T23:38:29.948Z,99.90
2019-04-03T23:40:58.356Z,99.90
2019-04-03T23:43:26.743Z,99.90
2019-04-03T23:45:55.132Z,99.90
2019-04-03T23:48:23.532Z,99.90
2019-04-03T23:50:52.772Z,99.90
2019-04-03T23:53:22.104Z,99.90
2019-04-03T23:55:50.514Z,99.90
2019-04-03T23:58:18.896Z,99.90
